Time;durP1;ratioP1;P1;durP2;ratioP2;P2;SDS_P1;SDS_P2;PMS_P1;PMS_P2;Temp;Humidity;BMP_temperature;BMP_pressure;BME280_temperature;BME280_humidity;BME280_pressure;Samples;Min_cycle;Max_cycle;Signal;HPM_P1;HPM_P2
2023/01/07 00:01:55;;;;;;;13.35;7.32;;;9.40;99.90;;;;;;5052393;28;20091;-70
2023/01/07 00:04:22;;;;;;;12.05;6.60;;;9.40;99.90;;;;;;5034732;28;20395;-69
2023/01/07 00:06:48;;;;;;;13.27;6.57;;;9.40;99.90;;;;;;5034483;28;20131;-69
2023/01/07 00:09:17;;;;;;;11.95;6.53;;;9.50;99.90;;;;;;5034559;28;20127;-69
2023/01/07 00:11:43;;;;;;;13.65;7.60;;;9.60;99.90;;;;;;5052616;28;20037;-69
2023/01/07 00:14:11;;;;;;;12.13;6.90;;;9.00;99.90;;;;;;5018350;28;20123;-69
2023/01/07 00:16:37;;;;;;;10.50;5.75;;;9.60;99.90;;;;;;5055972;28;20079;-69
2023/01/07 00:19:05;;;;;;;9.98;5.45;;;9.60;99.90;;;;;;5038513;28;20077;-69
2023/01/07 00:21:31;;;;;;;8.52;6.20;;;9.70;99.90;;;;;;5056200;28;20037;-69
2023/01/07 00:23:59;;;;;;;11.30;6.45;;;9.70;99.90;;;;;;5038282;28;20472;-69
2023/01/07 00:26:28;;;;;;;10.63;6.35;;;9.70;99.90;;;;;;5056076;28;20518;-69
2023/01/07 00:28:54;;;;;;;9.35;6.32;;;9.80;99.90;;;;;;5021388;28;20139;-69
2023/01/07 00:31:24;;;;;;;9.80;6.07;;;9.80;99.90;;;;;;5055959;28;20463;-69
2023/01/07 00:34:05;;;;;;;8.65;5.30;;;9.90;99.90;;;;;;5055647;28;20057;-69
2023/01/07 00:36:35;;;;;;;8.07;5.57;;;9.90;99.90;;;;;;5037852;28;20052;-69
2023/01/07 00:39:05;;;;;;;11.35;5.97;;;9.80;99.90;;;;;;5055848;28;20449;-69
2023/01/07 00:41:31;;;;;;;8.30;5.55;;;9.80;99.90;;;;;;5037688;28;20037;-69
2023/01/07 00:43:57;;;;;;;9.75;5.50;;;9.90;99.90;;;;;;5037986;28;20048;-69
2023/01/07 00:46:22;;;;;;;12.60;5.97;;;10.50;99.90;;;;;;5037625;28;20037;-69
2023/01/07 00:48:48;;;;;;;11.40;6.38;;;10.00;99.90;;;;;;5037506;28;20134;-69
2023/01/07 00:51:15;;;;;;;8.45;4.97;;;9.90;99.90;;;;;;5037430;28;20037;-69
2023/01/07 00:53:42;;;;;;;11.05;6.43;;;9.90;99.90;;;;;;5037427;28;20439;-70
2023/01/07 00:56:12;;;;;;;8.75;5.63;;;10.00;99.90;;;;;;5055093;28;20029;-69
2023/01/07 00:58:38;;;;;;;9.02;5.50;;;10.00;99.90;;;;;;5020874;28;20045;-69
2023/01/07 01:01:04;;;;;;;11.90;6.55;;;10.00;99.90;;;;;;5055171;28;20040;-69
2023/01/07 01:03:31;;;;;;;9.95;5.93;;;10.10;99.90;;;;;;5037392;28;20127;-69
2023/01/07 01:06:01;;;;;;;9.63;5.78;;;10.10;99.90;;;;;;5020786;28;20083;-70
2023/01/07 01:08:27;;;;;;;10.25;6.20;;;10.10;99.90;;;;;;5037228;28;20040;-69
2023/01/07 01:10:53;;;;;;;12.32;7.40;;;10.10;99.90;;;;;;5054958;28;20499;-69
2023/01/07 01:13:18;;;;;;;12.15;6.32;;;10.10;99.90;;;;;;5037349;28;20539;-69
2023/01/07 01:15:45;;;;;;;9.60;6.60;;;10.20;99.90;;;;;;5055125;28;20037;-69
2023/01/07 01:18:11;;;;;;;10.77;6.80;;;10.20;99.90;;;;;;5036974;28;20053;-69
2023/01/07 01:20:37;;;;;;;9.20;5.95;;;10.20;99.90;;;;;;5055069;28;20037;-69
2023/01/07 01:23:04;;;;;;;12.43;6.68;;;10.20;99.90;;;;;;5055037;28;20044;-69
2023/01/07 01:25:30;;;;;;;8.43;5.80;;;10.20;99.90;;;;;;5036165;28;20056;-69
2023/01/07 01:27:55;;;;;;;9.68;5.95;;;10.20;99.90;;;;;;5036436;28;20412;-69
2023/01/07 01:30:21;;;;;;;11.60;7.00;;;10.30;99.90;;;;;;5054849;28;20040;-69
2023/01/07 01:32:46;;;;;;;9.63;6.00;;;10.30;99.90;;;;;;5036838;28;20075;-69
2023/01/07 01:35:12;;;;;;;8.60;5.30;;;10.30;99.90;;;;;;5036720;28;20120;-69
2023/01/07 01:37:37;;;;;;;10.48;6.10;;;10.30;99.90;;;;;;5036740;28;20041;-69
2023/01/07 01:40:05;;;;;;;9.45;5.43;;;10.50;99.90;;;;;;5020142;28;20039;-69
2023/01/07 01:42:31;;;;;;;10.40;6.28;;;10.30;99.90;;;;;;5036525;28;20040;-69
2023/01/07 01:44:58;;;;;;;10.77;6.40;;;10.30;99.90;;;;;;5054591;28;20041;-69
2023/01/07 01:47:31;;;;;;;8.10;5.80;;;10.30;99.90;;;;;;5036724;28;20037;-69
2023/01/07 01:50:06;;;;;;;10.48;5.78;;;10.30;99.90;;;;;;5036673;28;20041;-69
2023/01/07 01:52:49;;;;;;;11.23;6.15;;;10.40;99.90;;;;;;5036659;28;20178;-69
2023/01/07 01:55:17;;;;;;;10.00;6.65;;;10.30;99.90;;;;;;5054366;28;20051;-69
2023/01/07 01:57:44;;;;;;;8.63;5.53;;;10.30;99.90;;;;;;5054368;28;20055;-70
2023/01/07 02:00:10;;;;;;;10.48;6.35;;;10.40;99.90;;;;;;5054248;28;20051;-69
2023/01/07 02:02:45;;;;;;;11.25;6.75;;;10.40;99.90;;;;;;5054328;28;20403;-69
2023/01/07 02:05:11;;;;;;;11.00;6.32;;;10.40;99.90;;;;;;5036122;28;20131;-69
2023/01/07 02:07:37;;;;;;;9.10;5.72;;;11.10;99.90;;;;;;5053926;28;20079;-69
2023/01/07 02:10:11;;;;;;;9.88;6.68;;;10.40;99.90;;;;;;5054148;28;20041;-69
2023/01/07 02:12:55;;;;;;;11.38;7.00;;;10.40;99.90;;;;;;5054162;28;20127;-69
2023/01/07 02:15:46;;;;;;;9.35;6.63;;;10.40;99.90;;;;;;5035843;28;20045;-70
2023/01/07 02:18:31;;;;;;;9.48;5.82;;;10.40;99.90;;;;;;5035895;28;20048;-69
2023/01/07 02:21:22;;;;;;;11.90;7.38;;;10.90;99.90;;;;;;5035805;28;20037;-69
2023/01/07 02:24:18;;;;;;;12.25;6.72;;;10.70;99.90;;;;;;5036055;28;20045;-69
2023/01/07 02:27:11;;;;;;;10.77;6.93;;;10.40;99.90;;;;;;5035714;28;20049;-69
2023/01/07 02:29:43;;;;;;;10.75;6.70;;;10.40;99.90;;;;;;5035925;28;20499;-69
2023/01/07 02:32:17;;;;;;;9.13;6.50;;;10.50;99.90;;;;;;5035770;28;20587;-69
2023/01/07 02:34:49;;;;;;;8.85;6.47;;;10.50;99.90;;;;;;5035466;28;20095;-69
2023/01/07 02:37:35;;;;;;;12.27;6.68;;;10.50;99.90;;;;;;5053370;28;20033;-69
2023/01/07 02:40:39;;;;;;;13.77;6.85;;;10.50;99.90;;;;;;5035491;28;20079;-69
2023/01/07 02:43:27;;;;;;;11.15;5.57;;;10.50;99.90;;;;;;5012312;28;20055;-69
2023/01/07 02:46:09;;;;;;;13.90;7.07;;;10.50;99.90;;;;;;5053174;28;20037;-69
2023/01/07 02:48:36;;;;;;;10.05;6.15;;;10.50;99.90;;;;;;5035345;28;20068;-69
2023/01/07 02:51:02;;;;;;;10.35;6.97;;;10.50;99.90;;;;;;5053396;28;20547;-69
2023/01/07 02:53:28;;;;;;;12.10;6.60;;;10.50;99.90;;;;;;5035238;28;20124;-69
2023/01/07 02:56:26;;;;;;;11.90;6.63;;;10.50;99.90;;;;;;5053022;28;20048;-69
2023/01/07 02:59:17;;;;;;;9.38;6.90;;;10.50;99.90;;;;;;5053327;28;20041;-69
2023/01/07 03:01:51;;;;;;;9.60;6.43;;;10.50;99.90;;;;;;5018684;28;20037;-70
2023/01/07 03:04:31;;;;;;;11.50;6.40;;;10.50;99.90;;;;;;5053238;28;20060;-70
2023/01/07 03:07:08;;;;;;;9.68;6.60;;;10.50;99.90;;;;;;5035044;28;20047;-69
2023/01/07 03:09:59;;;;;;;10.95;6.70;;;10.50;99.90;;;;;;5035082;28;20484;-69
2023/01/07 03:12:47;;;;;;;10.70;6.82;;;10.50;99.90;;;;;;5035079;28;20041;-69
2023/01/07 03:15:23;;;;;;;12.75;7.28;;;10.50;99.90;;;;;;5034880;28;20451;-70
2023/01/07 03:17:54;;;;;;;8.43;5.75;;;10.50;99.90;;;;;;5034964;28;20130;-69
2023/01/07 03:20:22;;;;;;;11.20;7.32;;;10.50;99.90;;;;;;5034936;28;20069;-69
2023/01/07 03:22:49;;;;;;;12.93;7.38;;;10.50;99.90;;;;;;5053047;28;20047;-69
2023/01/07 03:25:17;;;;;;;9.88;7.30;;;10.50;99.90;;;;;;5018331;28;20045;-69
2023/01/07 03:27:45;;;;;;;11.27;7.03;;;10.50;99.90;;;;;;5035221;28;20037;-69
2023/01/07 03:30:15;;;;;;;13.00;6.78;;;10.50;99.90;;;;;;5035034;28;20500;-69
2023/01/07 03:32:45;;;;;;;11.02;7.32;;;10.50;99.90;;;;;;5052206;28;20458;-69
2023/01/07 03:35:11;;;;;;;9.90;7.05;;;10.50;99.90;;;;;;5051933;28;20076;-69
2023/01/07 03:37:40;;;;;;;12.27;7.72;;;10.50;99.90;;;;;;5052019;28;20503;-69
2023/01/07 03:40:09;;;;;;;11.25;7.22;;;10.50;99.90;;;;;;5033794;28;20087;-69
2023/01/07 03:42:40;;;;;;;11.65;6.72;;;10.40;99.90;;;;;;5017652;28;20041;-69
2023/01/07 03:45:06;;;;;;;9.80;5.63;;;10.40;99.90;;;;;;5051888;28;20071;-69
2023/01/07 03:47:33;;;;;;;12.63;7.07;;;10.50;99.90;;;;;;5033820;28;20045;-69
2023/01/07 03:50:00;;;;;;;10.15;6.70;;;10.50;99.90;;;;;;5035443;28;20049;-69
2023/01/07 03:52:25;;;;;;;10.38;7.18;;;10.70;99.90;;;;;;5055056;28;20055;-69
2023/01/07 03:54:51;;;;;;;12.63;7.32;;;10.40;99.90;;;;;;5020916;28;20658;-69
2023/01/07 03:57:16;;;;;;;9.75;6.10;;;10.60;99.90;;;;;;5037241;28;20033;-69
2023/01/07 03:59:42;;;;;;;8.68;5.25;;;10.40;99.90;;;;;;5037237;28;20409;-69
2023/01/07 04:02:08;;;;;;;10.65;5.95;;;10.80;99.90;;;;;;5055303;28;20068;-69
2023/01/07 04:04:33;;;;;;;8.77;6.13;;;10.40;99.90;;;;;;5020973;28;20045;-69
2023/01/07 04:06:59;;;;;;;13.35;6.38;;;10.30;99.90;;;;;;5037072;28;20049;-69
2023/01/07 04:09:24;;;;;;;9.50;6.05;;;10.30;99.90;;;;;;5055169;28;20442;-69
2023/01/07 04:11:50;;;;;;;10.65;5.88;;;10.40;99.90;;;;;;5055124;28;20490;-69
2023/01/07 04:14:16;;;;;;;9.27;6.15;;;10.30;99.90;;;;;;5036835;28;20045;-69
2023/01/07 04:16:41;;;;;;;10.43;6.60;;;10.30;99.90;;;;;;5036829;28;20632;-69
2023/01/07 04:19:07;;;;;;;10.40;6.85;;;10.20;99.90;;;;;;5054996;28;20068;-70
2023/01/07 04:21:33;;;;;;;12.95;6.57;;;10.20;99.90;;;;;;5054528;28;20033;-69
2023/01/07 04:23:58;;;;;;;10.93;6.30;;;10.30;99.90;;;;;;5054852;28;20045;-69
2023/01/07 04:26:24;;;;;;;9.93;6.18;;;10.30;99.90;;;;;;5054838;28;20487;-69
2023/01/07 04:28:49;;;;;;;9.85;6.22;;;10.30;99.90;;;;;;5036741;28;20037;-69
2023/01/07 04:31:15;;;;;;;8.43;5.47;;;10.30;99.90;;;;;;5054366;28;20504;-69
2023/01/07 04:33:41;;;;;;;9.15;6.00;;;10.20;99.90;;;;;;5016173;28;1121336;-69
2023/01/07 04:36:07;;;;;;;9.23;6.25;;;10.20;99.90;;;;;;5055792;28;20127;-69
2023/01/07 04:38:33;;;;;;;8.35;5.80;;;10.20;99.90;;;;;;5037936;28;20537;-69
2023/01/07 04:40:58;;;;;;;9.55;6.35;;;10.20;99.90;;;;;;5037704;28;20040;-69
2023/01/07 04:43:24;;;;;;;8.20;6.30;;;10.20;99.90;;;;;;5055858;28;20425;-69
2023/01/07 04:45:50;;;;;;;11.00;6.38;;;10.20;99.90;;;;;;5055483;28;20040;-70
2023/01/07 04:48:15;;;;;;;7.78;6.10;;;10.20;99.90;;;;;;5037594;28;20032;-69
2023/01/07 04:50:41;;;;;;;10.95;5.97;;;10.20;99.90;;;;;;5037399;28;20037;-69
2023/01/07 04:53:07;;;;;;;7.82;5.95;;;10.20;99.90;;;;;;5037713;28;20080;-69
2023/01/07 04:55:33;;;;;;;10.13;6.50;;;10.20;99.90;;;;;;5055480;28;20037;-69
2023/01/07 04:57:58;;;;;;;11.40;5.88;;;10.20;99.90;;;;;;5037443;28;20083;-70
2023/01/07 05:00:24;;;;;;;7.68;5.80;;;10.20;99.90;;;;;;5054994;28;20079;-69
2023/01/07 05:02:49;;;;;;;8.30;5.80;;;10.20;99.90;;;;;;5037424;28;20041;-69
2023/01/07 05:05:15;;;;;;;8.60;5.38;;;10.20;99.90;;;;;;5037346;28;20396;-69
2023/01/07 05:07:41;;;;;;;10.50;4.85;;;10.10;99.90;;;;;;5055394;28;20072;-69
2023/01/07 05:10:07;;;;;;;9.27;5.82;;;10.20;99.90;;;;;;5037174;28;20037;-69
2023/01/07 05:12:34;;;;;;;10.43;6.25;;;10.20;99.90;;;;;;5037140;28;20041;-69
2023/01/07 05:15:00;;;;;;;7.05;5.15;;;10.20;99.90;;;;;;5037025;28;20076;-69
2023/01/07 05:17:26;;;;;;;8.38;5.22;;;10.20;99.90;;;;;;5055084;28;20076;-70
2023/01/07 05:19:51;;;;;;;7.78;4.95;;;10.20;99.90;;;;;;5037064;28;20064;-69
2023/01/07 05:22:17;;;;;;;9.18;5.35;;;10.20;99.90;;;;;;5036935;28;20385;-69
2023/01/07 05:24:43;;;;;;;11.90;5.50;;;10.20;99.90;;;;;;5037275;28;20037;-69
2023/01/07 05:27:08;;;;;;;9.77;5.05;;;10.20;99.90;;;;;;5055008;28;20045;-69
2023/01/07 05:29:34;;;;;;;10.32;5.25;;;10.20;99.90;;;;;;5037045;28;20036;-69
2023/01/07 05:32:00;;;;;;;7.75;5.13;;;10.60;99.90;;;;;;5036862;28;20048;-69
2023/01/07 05:34:25;;;;;;;6.30;4.60;;;10.20;99.90;;;;;;5036568;28;20099;-69
2023/01/07 05:36:51;;;;;;;10.98;5.38;;;10.20;99.90;;;;;;5054769;28;20076;-69
2023/01/07 05:39:17;;;;;;;8.23;4.00;;;10.20;99.90;;;;;;5036638;28;20473;-69
2023/01/07 05:41:42;;;;;;;9.70;5.15;;;10.20;99.90;;;;;;5036869;28;20558;-69
2023/01/07 05:44:08;;;;;;;10.10;5.78;;;10.20;99.90;;;;;;5054615;28;20189;-69
2023/01/07 05:46:33;;;;;;;8.02;5.15;;;10.20;99.90;;;;;;5054402;28;20036;-69
2023/01/07 05:48:59;;;;;;;7.85;5.20;;;10.20;99.90;;;;;;5036475;28;20040;-69
2023/01/07 05:51:24;;;;;;;6.55;4.63;;;10.20;99.90;;;;;;5036563;28;20404;-69
2023/01/07 05:53:50;;;;;;;6.55;4.65;;;10.10;99.90;;;;;;5054485;28;20037;-69
2023/01/07 05:56:16;;;;;;;7.32;4.75;;;10.20;99.90;;;;;;5054404;28;20491;-69
2023/01/07 05:58:41;;;;;;;7.13;4.57;;;10.20;99.90;;;;;;5054458;28;20400;-69
2023/01/07 06:01:07;;;;;;;7.85;5.10;;;10.10;99.90;;;;;;5036603;28;20037;-69
2023/01/07 06:03:32;;;;;;;7.10;4.40;;;10.10;99.90;;;;;;5036172;28;20032;-69
2023/01/07 06:06:05;;;;;;;5.75;3.90;;;10.10;99.90;;;;;;5053894;28;20423;-69
2023/01/07 06:08:33;;;;;;;7.05;4.10;;;10.10;99.90;;;;;;5054218;28;20103;-69
2023/01/07 06:10:58;;;;;;;8.63;4.88;;;10.10;99.90;;;;;;5019786;28;20045;-69
2023/01/07 06:13:24;;;;;;;6.07;4.15;;;10.10;99.90;;;;;;5035717;28;20048;-69
2023/01/07 06:15:49;;;;;;;5.80;3.88;;;10.10;99.90;;;;;;5036021;28;20051;-69
2023/01/07 06:18:15;;;;;;;7.32;4.55;;;10.10;99.90;;;;;;5053696;28;20087;-69
2023/01/07 06:20:41;;;;;;;8.85;4.38;;;10.10;99.90;;;;;;5035867;28;20138;-70
2023/01/07 06:23:06;;;;;;;7.05;4.40;;;10.10;99.90;;;;;;5053972;28;20491;-69
2023/01/07 06:25:32;;;;;;;3.95;3.17;;;10.10;99.90;;;;;;5036082;28;20060;-70
2023/01/07 06:27:57;;;;;;;6.30;3.58;;;11.10;99.90;;;;;;5035719;28;20045;-69
2023/01/07 06:30:23;;;;;;;7.00;4.43;;;10.10;99.90;;;;;;5053494;28;20095;-69
2023/01/07 06:32:49;;;;;;;6.43;4.10;;;10.10;99.90;;;;;;5053367;28;20064;-69
2023/01/07 06:35:15;;;;;;;6.65;4.20;;;10.20;99.90;;;;;;5035494;28;20075;-69
2023/01/07 06:37:40;;;;;;;6.55;3.72;;;10.10;99.90;;;;;;5053647;28;20059;-70
2023/01/07 06:40:07;;;;;;;5.85;3.65;;;10.10;99.90;;;;;;5053623;28;20037;-69
2023/01/07 06:42:32;;;;;;;11.45;3.75;;;10.20;99.90;;;;;;5053583;28;20068;-70
2023/01/07 06:44:58;;;;;;;7.03;4.38;;;10.10;99.90;;;;;;5019341;28;20169;-69
2023/01/07 06:47:24;;;;;;;4.78;3.55;;;10.80;99.90;;;;;;5035430;28;20067;-69
2023/01/07 06:49:50;;;;;;;8.13;3.90;;;10.10;99.90;;;;;;5053502;28;20494;-69
2023/01/07 06:52:16;;;;;;;4.20;3.15;;;10.10;99.90;;;;;;5053443;28;20072;-69
2023/01/07 06:54:42;;;;;;;7.22;4.05;;;10.10;99.90;;;;;;5053270;28;20476;-70
2023/01/07 06:57:07;;;;;;;7.40;3.47;;;10.10;99.90;;;;;;5035152;28;20392;-70
2023/01/07 06:59:33;;;;;;;5.97;3.63;;;10.10;99.90;;;;;;5035194;28;20029;-70
2023/01/07 07:01:58;;;;;;;4.53;3.15;;;10.10;99.90;;;;;;5052937;28;20041;-70
2023/01/07 07:04:24;;;;;;;7.45;3.22;;;10.10;99.90;;;;;;5053222;28;20070;-69
2023/01/07 07:06:50;;;;;;;8.15;3.80;;;10.10;99.90;;;;;;5018629;28;20037;-73
2023/01/07 07:09:15;;;;;;;5.18;3.50;;;10.10;99.90;;;;;;5035100;28;20041;-75
2023/01/07 07:11:41;;;;;;;6.38;3.47;;;10.10;99.90;;;;;;5035639;28;20047;-70
2023/01/07 07:14:06;;;;;;;5.80;4.03;;;10.10;99.90;;;;;;5018529;28;20029;-71
2023/01/07 07:16:32;;;;;;;5.70;3.78;;;10.10;99.90;;;;;;5035597;28;20090;-71
2023/01/07 07:18:57;;;;;;;4.30;2.55;;;10.10;99.90;;;;;;5034970;28;20037;-71
2023/01/07 07:21:23;;;;;;;3.58;2.72;;;10.10;99.90;;;;;;5052985;28;20403;-73
2023/01/07 07:23:48;;;;;;;6.03;3.38;;;10.50;99.90;;;;;;5034282;28;20044;-70
2023/01/07 07:26:14;;;;;;;5.25;2.90;;;10.10;99.90;;;;;;5052996;28;20045;-69
2023/01/07 07:28:43;;;;;;;5.03;3.28;;;10.00;99.90;;;;;;5052946;28;20053;-71
2023/01/07 07:31:09;;;;;;;4.13;2.63;;;10.10;99.90;;;;;;5052954;28;20044;-71
2023/01/07 07:33:35;;;;;;;6.55;3.22;;;10.10;99.90;;;;;;5034640;28;20061;-70
2023/01/07 07:36:00;;;;;;;4.10;2.55;;;10.10;99.90;;;;;;5052569;28;20124;-70
2023/01/07 07:38:26;;;;;;;4.25;2.78;;;10.10;99.90;;;;;;5052892;28;20032;-71
2023/01/07 07:40:52;;;;;;;7.03;3.00;;;10.20;99.90;;;;;;5034922;28;20036;-70
2023/01/07 07:43:17;;;;;;;4.22;2.88;;;10.10;99.90;;;;;;5052815;28;20504;-76
2023/01/07 07:45:43;;;;;;;3.72;2.35;;;10.10;99.90;;;;;;5035397;28;20049;-75
2023/01/07 07:48:11;;;;;;;4.80;2.85;;;10.10;99.90;;;;;;5034925;28;20051;-75
2023/01/07 07:50:37;;;;;;;4.65;2.70;;;10.10;99.90;;;;;;5034730;28;20041;-74
2023/01/07 07:53:03;;;;;;;3.95;2.50;;;10.10;99.90;;;;;;5034571;28;20075;-71
2023/01/07 07:55:29;;;;;;;5.70;2.78;;;10.10;99.90;;;;;;5034585;28;20049;-70
2023/01/07 07:57:57;;;;;;;4.47;2.60;;;10.10;99.90;;;;;;5034565;28;20040;-70
2023/01/07 08:00:23;;;;;;;4.20;2.25;;;10.10;99.90;;;;;;5034805;28;20041;-71
2023/01/07 08:02:49;;;;;;;4.68;3.00;;;10.10;99.90;;;;;;5034577;28;20040;-70
2023/01/07 08:05:14;;;;;;;5.13;2.67;;;10.20;99.90;;;;;;5018006;28;20447;-72
2023/01/07 08:07:41;;;;;;;3.45;2.28;;;10.10;99.90;;;;;;5034431;28;20047;-73
2023/01/07 08:10:07;;;;;;;3.83;2.45;;;10.00;99.90;;;;;;5034651;28;20135;-71
2023/01/07 08:12:36;;;;;;;3.80;2.15;;;10.00;99.90;;;;;;5034419;28;20385;-71
2023/01/07 08:15:05;;;;;;;3.47;2.42;;;10.00;99.90;;;;;;5034335;28;20045;-72
2023/01/07 08:17:30;;;;;;;5.00;1.90;;;10.00;99.90;;;;;;5018125;28;20068;-74
2023/01/07 08:19:56;;;;;;;5.65;3.33;;;10.00;99.90;;;;;;5034681;28;20068;-75
2023/01/07 08:22:22;;;;;;;5.90;2.53;;;10.00;99.90;;;;;;5034926;28;20040;-71
2023/01/07 08:24:47;;;;;;;3.72;2.05;;;10.00;99.90;;;;;;5034600;28;20447;-71
2023/01/07 08:27:13;;;;;;;4.80;2.70;;;9.90;99.90;;;;;;5034258;28;20076;-71
2023/01/07 08:29:38;;;;;;;4.35;2.30;;;9.90;99.90;;;;;;5034711;28;20442;-70
2023/01/07 08:32:04;;;;;;;4.57;2.13;;;10.20;99.90;;;;;;5018101;28;20079;-70
2023/01/07 08:34:30;;;;;;;2.67;2.08;;;10.00;99.90;;;;;;5017629;28;20119;-70
2023/01/07 08:36:56;;;;;;;5.47;2.47;;;9.90;99.90;;;;;;5037664;28;20041;-70
2023/01/07 08:39:21;;;;;;;4.70;2.20;;;10.00;99.90;;;;;;5037724;28;20075;-71
2023/01/07 08:41:47;;;;;;;2.95;2.13;;;10.00;99.90;;;;;;5055621;28;20381;-71
2023/01/07 08:44:13;;;;;;;5.25;2.40;;;10.00;99.90;;;;;;5037664;28;20044;-71
2023/01/07 08:46:40;;;;;;;5.90;2.65;;;10.00;99.90;;;;;;5037901;28;20044;-70
2023/01/07 08:49:06;;;;;;;6.30;2.72;;;9.90;99.90;;;;;;5055420;28;20044;-71
2023/01/07 08:51:31;;;;;;;2.78;1.80;;;9.90;99.90;;;;;;5037574;28;20033;-71
2023/01/07 08:53:57;;;;;;;3.97;2.30;;;9.90;99.90;;;;;;5037499;28;20119;-71
2023/01/07 08:56:22;;;;;;;3.22;2.20;;;9.90;99.90;;;;;;5037393;28;20044;-71
2023/01/07 08:58:48;;;;;;;5.47;2.47;;;9.90;99.90;;;;;;5037339;28;20036;-70
2023/01/07 09:01:14;;;;;;;3.80;2.47;;;9.90;99.90;;;;;;5037368;28;20124;-71
2023/01/07 09:03:40;;;;;;;4.32;2.53;;;9.80;99.90;;;;;;5037291;28;20041;-71
2023/01/07 09:06:06;;;;;;;5.88;2.83;;;9.80;99.90;;;;;;5055125;28;20408;-71
2023/01/07 09:08:31;;;;;;;3.83;2.38;;;9.80;99.90;;;;;;5037096;28;20045;-70
2023/01/07 09:10:57;;;;;;;3.90;2.30;;;9.80;99.90;;;;;;5055295;28;20029;-71
2023/01/07 09:13:22;;;;;;;3.50;2.25;;;10.00;99.90;;;;;;5037119;28;20131;-72
2023/01/07 09:15:48;;;;;;;3.22;2.22;;;9.70;99.90;;;;;;5037195;28;20526;-71
2023/01/07 09:18:14;;;;;;;4.43;2.22;;;9.70;99.90;;;;;;5037047;28;20041;-69
2023/01/07 09:20:39;;;;;;;4.85;2.00;;;10.30;99.90;;;;;;5054837;28;20442;-69
2023/01/07 09:23:05;;;;;;;4.68;2.17;;;9.70;99.90;;;;;;5054783;28;20041;-69
2023/01/07 09:25:30;;;;;;;2.88;1.85;;;9.70;99.90;;;;;;5036930;28;20083;-72
2023/01/07 09:27:56;;;;;;;3.42;2.30;;;9.70;99.90;;;;;;5054638;28;20480;-71
2023/01/07 09:30:22;;;;;;;3.28;2.28;;;9.70;99.90;;;;;;5020546;28;20037;-70
2023/01/07 09:32:47;;;;;;;2.92;1.73;;;9.70;99.90;;;;;;5036497;28;20049;-73
2023/01/07 09:35:14;;;;;;;3.33;1.67;;;9.70;99.90;;;;;;5036579;28;20068;-69
2023/01/07 09:37:40;;;;;;;4.07;1.90;;;9.70;99.90;;;;;;5036568;28;20116;-71
2023/01/07 09:40:21;;;;;;;4.35;1.80;;;10.30;99.90;;;;;;5036532;28;20439;-70
2023/01/07 09:42:56;;;;;;;3.10;2.10;;;9.70;99.90;;;;;;5037035;28;20045;-70
2023/01/07 09:45:27;;;;;;;2.80;1.92;;;9.70;99.90;;;;;;5036558;28;20041;-70
2023/01/07 09:47:58;;;;;;;3.67;1.95;;;9.70;99.90;;;;;;5035616;28;20124;-70
2023/01/07 09:50:52;;;;;;;3.88;1.75;;;10.70;99.90;;;;;;5036315;28;20435;-71
2023/01/07 09:53:24;;;;;;;2.60;1.73;;;9.80;99.90;;;;;;5054458;28;20041;-71
2023/01/07 09:55:52;;;;;;;2.08;1.50;;;9.80;99.90;;;;;;5036283;28;20044;-70
2023/01/07 09:58:19;;;;;;;2.30;1.58;;;9.80;99.90;;;;;;5036451;28;20480;-70
2023/01/07 10:00:55;;;;;;;2.70;1.20;;;9.80;99.90;;;;;;5036156;28;20122;-72
2023/01/07 10:03:37;;;;;;;4.50;1.63;;;9.80;99.90;;;;;;5036360;28;20037;-70
2023/01/07 10:06:15;;;;;;;2.63;1.60;;;9.80;99.90;;;;;;5036056;28;20128;-71
2023/01/07 10:09:04;;;;;;;2.92;1.77;;;9.80;99.90;;;;;;5036059;28;20045;-70
2023/01/07 10:11:48;;;;;;;2.08;1.30;;;9.90;99.90;;;;;;5052513;28;20044;-71
2023/01/07 10:14:44;;;;;;;3.22;1.50;;;9.90;99.90;;;;;;5036314;28;20055;-70
2023/01/07 10:17:18;;;;;;;3.42;1.33;;;9.90;99.90;;;;;;4985488;28;20397;-70
2023/01/07 10:19:55;;;;;;;2.92;1.63;;;9.90;99.90;;;;;;5035913;28;20045;-70
2023/01/07 10:22:29;;;;;;;2.33;1.70;;;10.00;99.90;;;;;;5035774;28;20094;-70
2023/01/07 10:25:25;;;;;;;2.72;1.33;;;10.00;99.90;;;;;;5019309;28;20047;-71
2023/01/07 10:27:53;;;;;;;2.97;1.55;;;10.00;99.90;;;;;;5035979;28;20480;-70
2023/01/07 10:30:24;;;;;;;4.32;2.05;;;10.00;99.90;;;;;;5035706;28;20138;-70
2023/01/07 10:33:01;;;;;;;2.40;1.25;;;10.60;99.90;;;;;;5003203;28;20057;-71
2023/01/07 10:35:29;;;;;;;2.20;1.10;;;10.20;99.90;;;;;;5053325;28;20045;-70
2023/01/07 10:38:00;;;;;;;2.60;1.50;;;10.20;99.90;;;;;;5053731;28;20036;-70
2023/01/07 10:40:37;;;;;;;;;;;10.20;99.90;;;;;;5036083;28;20075;-70
2023/01/07 10:43:33;;;;;;;5.60;1.60;;;10.30;99.90;;;;;;5035448;28;19916;-72
2023/01/07 10:46:21;;;;;;;2.35;1.35;;;10.30;99.90;;;;;;5035345;28;20473;-70
2023/01/07 10:48:56;;;;;;;4.90;1.23;;;10.40;99.90;;;;;;5035602;28;20071;-69
2023/01/07 10:51:56;;;;;;;1.48;0.95;;;10.30;99.90;;;;;;5035198;28;20060;-68
2023/01/07 10:54:56;;;;;;;2.17;1.38;;;10.40;99.90;;;;;;5053315;28;20076;-70
2023/01/07 10:57:27;;;;;;;1.98;1.48;;;10.40;99.90;;;;;;5053342;28;20080;-70
2023/01/07 11:00:01;;;;;;;1.58;0.82;;;10.40;99.90;;;;;;5053064;28;20029;-69
2023/01/07 11:02:27;;;;;;;1.85;1.20;;;10.40;99.90;;;;;;5052955;28;20044;-69
2023/01/07 11:04:54;;;;;;;1.27;1.17;;;10.40;99.90;;;;;;5035456;28;20033;-68
2023/01/07 11:07:42;;;;;;;3.25;1.38;;;10.50;99.90;;;;;;5052702;28;20040;-68
2023/01/07 11:10:24;;;;;;;1.33;0.90;;;10.50;99.90;;;;;;5053111;28;20041;-69
2023/01/07 11:13:01;;;;;;;2.08;1.27;;;10.60;99.90;;;;;;5034918;28;20044;-69
2023/01/07 11:15:37;;;;;;;4.50;1.33;;;10.60;99.90;;;;;;5034903;28;20045;-74
2023/01/07 11:18:32;;;;;;;1.15;0.88;;;10.60;99.90;;;;;;5034887;28;20380;-70
2023/01/07 11:20:58;;;;;;;2.83;1.08;;;10.70;99.90;;;;;;5034892;28;20051;-72
2023/01/07 11:23:39;;;;;;;1.27;0.80;;;10.80;99.90;;;;;;5034834;28;20090;-71
2023/01/07 11:26:12;;;;;;;1.00;0.70;;;10.70;99.90;;;;;;5053038;28;20037;-74
2023/01/07 11:29:09;;;;;;;1.92;1.08;;;10.70;99.90;;;;;;5018429;28;20380;-72
2023/01/07 11:31:59;;;;;;;1.17;0.70;;;10.80;99.90;;;;;;5018149;28;20037;-69
2023/01/07 11:34:34;;;;;;;5.03;1.10;;;10.70;99.90;;;;;;5052461;28;20097;-70
2023/01/07 11:37:01;;;;;;;1.02;0.77;;;10.70;99.90;;;;;;5052847;28;20048;-77
2023/01/07 11:39:30;;;;;;;1.55;0.75;;;10.70;99.90;;;;;;5034755;28;20048;-74
2023/01/07 11:41:59;;;;;;;1.50;1.08;;;10.70;99.90;;;;;;5052448;28;20041;-69
2023/01/07 11:44:26;;;;;;;1.05;0.95;;;10.70;99.90;;;;;;5052773;28;20116;-69
2023/01/07 11:46:53;;;;;;;2.47;1.15;;;10.70;99.90;;;;;;5034674;28;20033;-69
2023/01/07 11:49:42;;;;;;;1.60;1.05;;;10.70;99.90;;;;;;5035052;28;20407;-69
2023/01/07 11:52:19;;;;;;;1.42;0.70;;;10.70;99.90;;;;;;5034393;28;20045;-73
2023/01/07 11:54:50;;;;;;;1.35;0.85;;;10.70;99.90;;;;;;5034512;28;20036;-70
2023/01/07 11:57:26;;;;;;;0.95;0.60;;;10.70;99.90;;;;;;5018374;28;20037;-70
2023/01/07 12:00:12;;;;;;;1.17;0.95;;;10.70;99.90;;;;;;5034863;28;20091;-70
2023/01/07 12:02:39;;;;;;;1.48;0.90;;;10.70;99.90;;;;;;5034521;28;20037;-70
2023/01/07 12:05:21;;;;;;;1.23;0.95;;;10.70;99.90;;;;;;5034805;28;20037;-71
2023/01/07 12:07:48;;;;;;;1.40;0.85;;;10.80;99.90;;;;;;5052198;28;20041;-70
2023/01/07 12:10:33;;;;;;;0.95;0.65;;;10.70;99.90;;;;;;5035348;28;20048;-70
2023/01/07 12:13:02;;;;;;;1.38;1.15;;;10.80;99.90;;;;;;5056382;28;20049;-70
2023/01/07 12:15:30;;;;;;;2.13;1.20;;;10.80;99.90;;;;;;5038233;28;20080;-70
2023/01/07 12:18:08;;;;;;;1.30;0.70;;;10.80;99.90;;;;;;5056092;28;20033;-69
2023/01/07 12:20:54;;;;;;;0.88;0.75;;;10.80;99.90;;;;;;5055957;28;20124;-70
2023/01/07 12:23:43;;;;;;;1.45;0.77;;;10.90;99.90;;;;;;5038305;28;20045;-70
2023/01/07 12:26:19;;;;;;;0.57;0.57;;;10.90;99.90;;;;;;5038058;28;20048;-70
2023/01/07 12:29:10;;;;;;;1.88;0.93;;;10.90;99.90;;;;;;5037958;28;20120;-71
2023/01/07 12:31:42;;;;;;;;;;;11.60;99.90;;;;;;5038364;28;20412;-72
2023/01/07 12:34:34;;;;;;;0.60;0.60;;;10.90;99.90;;;;;;5037711;28;19920;-72
2023/01/07 12:37:28;;;;;;;1.05;0.82;;;11.00;99.90;;;;;;5037581;28;20044;-71
2023/01/07 12:40:10;;;;;;;1.63;1.00;;;11.10;99.90;;;;;;5014023;28;20500;-76
2023/01/07 12:42:41;;;;;;;2.70;1.08;;;11.20;99.90;;;;;;5037491;28;20056;-71
2023/01/07 12:45:17;;;;;;;1.38;0.95;;;11.20;99.90;;;;;;5037676;28;20410;-75
2023/01/07 12:47:50;;;;;;;1.85;0.63;;;13.10;99.90;;;;;;5021041;28;20221;-71
2023/01/07 12:50:31;;;;;;;1.02;0.60;;;11.20;99.90;;;;;;5037567;28;20045;-75
2023/01/07 12:53:02;;;;;;;1.50;0.60;;;11.20;99.90;;;;;;5033852;28;20106;-71
2023/01/07 12:55:35;;;;;;;1.75;0.90;;;11.20;99.90;;;;;;5037400;28;20045;-73
2023/01/07 12:58:19;;;;;;;1.77;0.70;;;11.20;99.90;;;;;;5016980;28;20048;-71
2023/01/07 13:00:58;;;;;;;1.52;1.08;;;11.20;99.90;;;;;;5037392;28;20041;-70
2023/01/07 13:03:38;;;;;;;0.70;0.60;;;11.20;99.90;;;;;;5037418;28;20479;-70